Terminal Aerodrome Forecast
Issued by NWS

Home | Current Version | Previous Version | Text Only | Print | Product List | Glossary On
Versions: 1 2 3 4 5 6 7 8 9 10 11 12 13 14 15
000
FTUS46 KPDT 170500
TAFRDM
TAF
KRDM 170520Z 1706/1806 VRB04KT P6SM SCT120 BKN200
     FM171000 16005KT P6SM SCT100 BKN150
     FM171600 VRB05KT P6SM SCT090 BKN140
     FM172200 32008G15KT P6SM SCT070 BKN100=

USA.gov is the U.S. government's official web portal to all federal, state and local government web resources and services.